createdAt,value
2018-07-23T00:00:59.915Z,96996.18
2018-07-23T00:03:29.451Z,96991.85
2018-07-23T00:05:59.031Z,96993.88
2018-07-23T00:08:28.220Z,96992.63
2018-07-23T00:10:57.419Z,96993.66
2018-07-23T00:13:26.705Z,96995.88
2018-07-23T00:15:55.967Z,96996.42
2018-07-23T00:18:26.047Z,96992.49
2018-07-23T00:20:55.195Z,96997.09
2018-07-23T00:23:24.577Z,96999.58
2018-07-23T00:25:53.865Z,96994.95
2018-07-23T00:28:23.055Z,96988.55
2018-07-23T00:30:52.380Z,96989.31
2018-07-23T00:33:21.631Z,96993.86
2018-07-23T00:35:50.798Z,96990.13
2018-07-23T00:38:19.991Z,96994.51
2018-07-23T00:40:49.287Z,96997.31
2018-07-23T00:43:18.483Z,96997.00
2018-07-23T00:45:47.682Z,96990.77
2018-07-23T00:48:16.870Z,96986.75
2018-07-23T00:50:46.474Z,96991.03
2018-07-23T00:53:15.686Z,96995.95
2018-07-23T00:55:44.867Z,96998.61
2018-07-23T00:58:14.038Z,97001.09
2018-07-23T01:00:43.476Z,97003.57
2018-07-23T01:03:13.551Z,97007.86
2018-07-23T01:05:42.756Z,97002.55
2018-07-23T01:08:11.947Z,97013.95
2018-07-23T01:10:41.122Z,97005.03
2018-07-23T01:13:10.590Z,97005.30
2018-07-23T01:15:39.771Z,97006.38
2018-07-23T01:18:08.995Z,97007.50
2018-07-23T01:20:38.154Z,97004.57
2018-07-23T01:23:07.346Z,97001.02
2018-07-23T01:25:36.551Z,97006.83
2018-07-23T01:28:05.842Z,97002.00
2018-07-23T01:30:35.003Z,97004.70
2018-07-23T01:33:04.667Z,97007.37
2018-07-23T01:35:33.834Z,97010.33
2018-07-23T01:38:03.039Z,97010.88
2018-07-23T01:40:32.215Z,97009.56
2018-07-23T01:43:01.434Z,97001.73
2018-07-23T01:45:30.627Z,97012.63
2018-07-23T01:47:59.795Z,97001.55
2018-07-23T01:50:28.979Z,97003.47
2018-07-23T01:52:58.151Z,97011.34
2018-07-23T01:55:27.343Z,97007.72
2018-07-23T01:57:56.848Z,97010.42
2018-07-23T02:00:26.039Z,97009.11
2018-07-23T02:02:55.198Z,97015.02
2018-07-23T02:05:24.535Z,97012.00
2018-07-23T02:07:53.694Z,97014.12
2018-07-23T02:10:22.983Z,97009.61
2018-07-23T02:12:52.358Z,97009.34
2018-07-23T02:15:21.571Z,97016.94
2018-07-23T02:17:51.003Z,97021.27
2018-07-23T02:20:20.578Z,97022.11
2018-07-23T02:22:50.054Z,97016.44
2018-07-23T02:25:19.254Z,97018.33
2018-07-23T02:27:48.550Z,97014.35
2018-07-23T02:30:17.739Z,97016.28
2018-07-23T02:32:46.909Z,97017.36
2018-07-23T02:35:16.103Z,97018.17
2018-07-23T02:37:45.275Z,97011.48
2018-07-23T02:40:14.495Z,97014.72
2018-07-23T02:42:44.012Z,97010.09
2018-07-23T02:45:13.195Z,97019.31
2018-07-23T02:47:42.375Z,97013.87
2018-07-23T02:50:11.570Z,97026.03
2018-07-23T02:52:41.030Z,97026.84
2018-07-23T02:55:10.575Z,97024.71
2018-07-23T02:57:39.751Z,97027.20
2018-07-23T03:00:08.976Z,97020.75
2018-07-23T03:02:38.259Z,97020.75
2018-07-23T03:05:07.454Z,97021.05
2018-07-23T03:07:36.631Z,97028.84
2018-07-23T03:10:05.992Z,97029.11
2018-07-23T03:12:35.202Z,97024.53
2018-07-23T03:15:05.067Z,97024.84
2018-07-23T03:17:34.488Z,97022.70
2018-07-23T03:20:03.842Z,97034.07
2018-07-23T03:22:33.100Z,97034.63
2018-07-23T03:25:02.556Z,97034.07
2018-07-23T03:27:31.727Z,97039.47
2018-07-23T03:30:01.555Z,97038.42
2018-07-23T03:32:31.059Z,97041.12
2018-07-23T03:35:00.363Z,97044.09
2018-07-23T03:37:29.539Z,97041.13
2018-07-23T03:39:58.722Z,97039.76
2018-07-23T03:42:28.096Z,97042.77
2018-07-23T03:44:57.310Z,97042.77
2018-07-23T03:47:26.604Z,97045.98
2018-07-23T03:49:55.910Z,97045.73
2018-07-23T03:52:25.108Z,97048.14
2018-07-23T03:54:54.304Z,97050.05
2018-07-23T03:57:23.803Z,97051.91
2018-07-23T03:59:52.998Z,97061.08
2018-07-23T04:02:22.191Z,97058.64
2018-07-23T04:04:51.395Z,97061.61
2018-07-23T04:07:20.575Z,97061.34
2018-07-23T04:09:49.787Z,97055.67
2018-07-23T04:12:19.100Z,97058.13
2018-07-23T04:14:48.611Z,97062.69
2018-07-23T04:17:17.791Z,97067.25
2018-07-23T04:19:47.087Z,97066.95
2018-07-23T04:22:16.302Z,97071.27
2018-07-23T04:24:45.618Z,97071.85
2018-07-23T04:27:22.104Z,97065.59
2018-07-23T04:29:54.099Z,97075.03
2018-07-23T04:32:23.314Z,97073.39
2018-07-23T04:34:52.671Z,97074.42
2018-07-23T04:37:21.887Z,97073.58
2018-07-23T04:39:51.084Z,97077.08
2018-07-23T04:42:20.269Z,97070.56
2018-07-23T04:44:49.489Z,97076.98
2018-07-23T04:47:19.014Z,97084.52
2018-07-23T04:49:48.207Z,97079.08
2018-07-23T04:52:17.859Z,97083.06
2018-07-23T04:54:49.402Z,97076.86
2018-07-23T04:57:20.959Z,97081.07
2018-07-23T04:59:51.286Z,97087.75
2018-07-23T05:02:20.510Z,97090.88
2018-07-23T05:04:49.711Z,97087.48
2018-07-23T05:07:18.951Z,97086.52
2018-07-23T05:09:48.162Z,97089.94
2018-07-23T05:12:17.519Z,97092.80
2018-07-23T05:14:46.726Z,97089.64
2018-07-23T05:17:15.991Z,97086.70
2018-07-23T05:19:45.443Z,97090.83
2018-07-23T05:22:15.017Z,97096.06
2018-07-23T05:24:44.235Z,97095.17
2018-07-23T05:27:13.428Z,97098.72
2018-07-23T05:29:42.626Z,97094.70
2018-07-23T05:32:11.992Z,97095.27
2018-07-23T05:34:41.343Z,97091.13
2018-07-23T05:37:10.528Z,97093.52
2018-07-23T05:39:39.736Z,97094.61
2018-07-23T05:42:08.919Z,97105.61
2018-07-23T05:44:38.439Z,97098.59
2018-07-23T05:47:07.654Z,97094.36
2018-07-23T05:49:37.014Z,97095.55
2018-07-23T05:52:06.234Z,97093.59
2018-07-23T05:54:36.207Z,97102.08
2018-07-23T05:57:05.555Z,97099.53
2018-07-23T05:59:34.746Z,97100.99
2018-07-23T06:02:04.079Z,97095.84
2018-07-23T06:04:33.300Z,97096.17
2018-07-23T06:07:02.934Z,97095.49
2018-07-23T06:09:32.026Z,97088.86
2018-07-23T06:12:01.265Z,97093.58
2018-07-23T06:14:30.446Z,97093.62
2018-07-23T06:16:59.655Z,97098.99
2018-07-23T06:19:29.490Z,97095.97
2018-07-23T06:21:59.011Z,97107.58
2018-07-23T06:24:28.195Z,97110.26
2018-07-23T06:26:57.525Z,97106.11
2018-07-23T06:29:26.746Z,97103.82
2018-07-23T06:31:55.959Z,97109.55
2018-07-23T06:34:25.146Z,97106.09
2018-07-23T06:36:55.333Z,97108.61
2018-07-23T06:39:24.533Z,97113.92
2018-07-23T06:41:53.964Z,97106.23
2018-07-23T06:44:23.139Z,97103.38
2018-07-23T06:46:52.347Z,97109.38
2018-07-23T06:49:21.535Z,97107.42
2018-07-23T06:51:50.732Z,97108.30
2018-07-23T06:54:19.903Z,97113.69
2018-07-23T06:56:49.095Z,97107.09
2018-07-23T07:00:20.851Z,97111.73
2018-07-23T07:02:50.031Z,97112.63
2018-07-23T07:05:19.210Z,97118.02
2018-07-23T07:07:48.511Z,97118.03
2018-07-23T07:10:17.679Z,97114.21
2018-07-23T07:12:46.996Z,97115.96
2018-07-23T07:15:16.187Z,97119.52
2018-07-23T07:17:45.411Z,97115.43
2018-07-23T07:20:14.591Z,97115.20
2018-07-23T07:22:43.790Z,97119.66
2018-07-23T07:25:12.986Z,97119.66
2018-07-23T07:27:42.236Z,97121.54
2018-07-23T07:30:11.719Z,97117.13
2018-07-23T07:32:40.927Z,97125.58
2018-07-23T07:35:10.091Z,97124.70
2018-07-23T07:37:39.279Z,97118.44
2018-07-23T07:40:08.461Z,97121.34
2018-07-23T07:42:37.699Z,97117.08
2018-07-23T07:45:07.561Z,97125.91
2018-07-23T07:47:36.777Z,97121.09
2018-07-23T07:50:05.995Z,97122.73
2018-07-23T07:52:35.195Z,97122.99
2018-07-23T07:55:04.432Z,97119.64
2018-07-23T07:57:33.971Z,97123.19
2018-07-23T08:00:03.548Z,97116.00
2018-07-23T08:02:32.754Z,97122.93
2018-07-23T08:05:01.928Z,97119.84
2018-07-23T08:07:31.123Z,97120.02
2018-07-23T08:10:00.495Z,97114.72
2018-07-23T08:12:29.729Z,97110.45
2018-07-23T08:14:58.884Z,97116.33
2018-07-23T08:17:28.106Z,97115.62
2018-07-23T08:19:57.303Z,97110.78
2018-07-23T08:22:26.973Z,97111.38
2018-07-23T08:24:56.651Z,97107.98
2018-07-23T08:27:25.879Z,97113.95
2018-07-23T08:29:55.051Z,97111.85
2018-07-23T08:32:24.313Z,97115.53
2018-07-23T08:34:53.511Z,97110.51
2018-07-23T08:37:22.715Z,97115.25
2018-07-23T08:39:51.875Z,97113.15
2018-07-23T08:42:21.067Z,97106.79
2018-07-23T08:44:50.332Z,97102.98
2018-07-23T08:47:19.450Z,97098.67
2018-07-23T08:49:48.993Z,97097.59
2018-07-23T08:52:18.183Z,97104.89
2018-07-23T08:54:47.359Z,97099.05
2018-07-23T08:57:16.586Z,97111.28
2018-07-23T08:59:45.711Z,97113.05
2018-07-23T09:02:15.072Z,97111.21
2018-07-23T09:04:44.194Z,97111.56
2018-07-23T09:07:13.395Z,97108.77
2018-07-23T09:09:42.564Z,97112.77
2018-07-23T09:12:11.766Z,97112.49
2018-07-23T09:14:40.942Z,97115.25
2018-07-23T09:17:11.318Z,97107.78
2018-07-23T09:19:41.451Z,97107.67
2018-07-23T09:22:11.229Z,97117.75
2018-07-23T09:24:40.399Z,97106.66
2018-07-23T09:27:09.607Z,97105.01
2018-07-23T09:29:38.790Z,97108.73
2018-07-23T09:32:07.987Z,97107.34
2018-07-23T09:34:37.305Z,97111.61
2018-07-23T09:37:06.556Z,97110.42
2018-07-23T09:39:36.095Z,97110.52
2018-07-23T09:42:05.305Z,97110.78
2018-07-23T09:44:34.478Z,97112.87
2018-07-23T09:47:03.686Z,97110.19
2018-07-23T09:49:32.868Z,97111.26
2018-07-23T09:52:02.077Z,97101.17
2018-07-23T09:54:31.565Z,97104.97
2018-07-23T09:57:00.968Z,97108.45
2018-07-23T09:59:30.131Z,97101.81
2018-07-23T10:01:59.339Z,97103.70
2018-07-23T10:04:28.515Z,97092.50
2018-07-23T10:06:57.690Z,97100.84
2018-07-23T10:09:26.859Z,97094.64
2018-07-23T10:11:56.119Z,97098.69
2018-07-23T10:14:25.848Z,97099.38
2018-07-23T10:16:55.071Z,97097.91
2018-07-23T10:19:24.572Z,97090.99
2018-07-23T10:21:54.072Z,97096.14
2018-07-23T10:24:23.574Z,97100.19
2018-07-23T10:26:52.755Z,97095.34
2018-07-23T10:29:22.925Z,97094.25
2018-07-23T10:31:52.091Z,97100.30
2018-07-23T10:34:21.284Z,97096.81
2018-07-23T10:36:50.616Z,97091.52
2018-07-23T10:39:20.095Z,97078.23
2018-07-23T10:41:49.647Z,97079.16
2018-07-23T10:44:18.860Z,97078.86
2018-07-23T10:46:48.103Z,97085.96
2018-07-23T10:49:17.605Z,97079.91
2018-07-23T10:51:46.786Z,97081.98
2018-07-23T10:54:15.966Z,97083.52
2018-07-23T10:56:45.171Z,97072.59
2018-07-23T10:59:14.374Z,97074.13
2018-07-23T11:01:43.575Z,97075.33
2018-07-23T11:04:13.221Z,97089.77
2018-07-23T11:06:42.919Z,97083.93
2018-07-23T11:09:12.099Z,97078.30
2018-07-23T11:11:41.758Z,97077.92
2018-07-23T11:14:10.941Z,97073.13
2018-07-23T11:16:40.128Z,97075.16
2018-07-23T11:19:09.367Z,97076.52
2018-07-23T11:21:38.551Z,97070.72
2018-07-23T11:24:07.743Z,97066.55
2018-07-23T11:26:36.927Z,97070.62
2018-07-23T11:29:06.216Z,97068.33
2018-07-23T11:31:35.412Z,97071.37
2018-07-23T11:34:04.920Z,97074.07
2018-07-23T11:36:34.104Z,97069.23
2018-07-23T11:39:03.663Z,97069.98
2018-07-23T11:41:32.878Z,97065.33
2018-07-23T11:44:02.047Z,97067.48
2018-07-23T11:46:31.250Z,97071.58
2018-07-23T11:49:00.466Z,97075.64
2018-07-23T11:51:29.639Z,97067.68
2018-07-23T11:53:59.754Z,97075.73
2018-07-23T11:56:28.959Z,97065.98
2018-07-23T11:58:58.198Z,97072.39
2018-07-23T12:01:27.492Z,97066.69
2018-07-23T12:03:56.677Z,97071.67
2018-07-23T12:06:26.135Z,97069.77
2018-07-23T12:08:55.340Z,97068.09
2018-07-23T12:11:24.519Z,97063.58
2018-07-23T12:13:53.713Z,97067.73
2018-07-23T12:16:22.970Z,97064.97
2018-07-23T12:18:52.159Z,97060.67
2018-07-23T12:21:21.459Z,97052.66
2018-07-23T12:23:50.647Z,97061.16
2018-07-23T12:26:19.842Z,97051.08
2018-07-23T12:28:49.154Z,97045.07
2018-07-23T12:31:18.723Z,97051.31
2018-07-23T12:33:48.670Z,97049.07
2018-07-23T12:36:18.232Z,97043.32
2018-07-23T12:38:47.430Z,97049.02
2018-07-23T12:41:16.603Z,97051.09
2018-07-23T12:43:45.799Z,97051.66
2018-07-23T12:46:14.988Z,97041.23
2018-07-23T12:48:44.239Z,97049.14
2018-07-23T12:51:13.531Z,97045.05
2018-07-23T12:53:42.707Z,97040.17
2018-07-23T12:56:12.536Z,97048.55
2018-07-23T12:58:41.727Z,97037.91
2018-07-23T13:01:10.898Z,97043.20
2018-07-23T13:03:40.182Z,97048.20
2018-07-23T13:06:09.363Z,97042.88
2018-07-23T13:08:38.550Z,97043.10
2018-07-23T13:11:08.136Z,97041.80
2018-07-23T13:13:37.326Z,97039.08
2018-07-23T13:16:06.551Z,97043.14
2018-07-23T13:18:36.031Z,97037.33
2018-07-23T13:21:05.199Z,97042.00
2018-07-23T13:23:34.395Z,97037.59
2018-07-23T13:26:03.646Z,97042.05
2018-07-23T13:28:32.860Z,97042.58
2018-07-23T13:31:02.042Z,97039.95
2018-07-23T13:33:31.238Z,97040.98
2018-07-23T13:36:00.558Z,97034.73
2018-07-23T13:38:29.759Z,97045.23
2018-07-23T13:40:58.958Z,97043.52
2018-07-23T13:43:28.162Z,97039.11
2018-07-23T13:45:57.331Z,97041.77
2018-07-23T13:48:26.531Z,97043.73
2018-07-23T13:50:56.012Z,97045.42
2018-07-23T13:53:25.205Z,97043.27
2018-07-23T13:55:54.596Z,97040.68
2018-07-23T13:58:24.240Z,97041.80
2018-07-23T14:00:53.706Z,97044.63
2018-07-23T14:03:23.231Z,97043.61
2018-07-23T14:05:52.568Z,97042.19
2018-07-23T14:08:21.759Z,97037.58
2018-07-23T14:10:50.940Z,97032.97
2018-07-23T14:13:20.572Z,97036.59
2018-07-23T14:15:49.735Z,97039.16
2018-07-23T14:18:19.240Z,97037.05
2018-07-23T14:20:49.074Z,97036.72
2018-07-23T14:23:48.611Z,97040.88
2018-07-23T14:26:17.768Z,97037.42
2018-07-23T14:28:46.949Z,97035.02
2018-07-23T14:31:16.131Z,97033.83
2018-07-23T14:33:45.298Z,97043.65
2018-07-23T14:36:14.491Z,97037.09
2018-07-23T14:38:43.925Z,97034.45
2018-07-23T14:41:13.095Z,97037.45
2018-07-23T14:43:42.432Z,97032.05
2018-07-23T14:46:11.898Z,97022.94
2018-07-23T14:48:41.063Z,97024.61
2018-07-23T14:51:10.436Z,97034.23
2018-07-23T14:53:39.857Z,97029.64
2018-07-23T14:56:09.806Z,97035.31
2018-07-23T14:58:39.027Z,97026.58
2018-07-23T15:01:08.511Z,97023.91
2018-07-23T15:03:37.724Z,97026.36
2018-07-23T15:06:07.216Z,97025.72
2018-07-23T15:08:36.366Z,97026.39
2018-07-23T15:11:05.707Z,97027.73
2018-07-23T15:13:35.859Z,97028.87
2018-07-23T15:16:05.046Z,97030.31
2018-07-23T15:18:34.455Z,97023.53
2018-07-23T15:21:03.895Z,97025.53
2018-07-23T15:23:33.606Z,97016.36
2018-07-23T15:26:03.513Z,97010.95
2018-07-23T15:28:32.665Z,97007.75
2018-07-23T15:31:01.854Z,97010.81
2018-07-23T15:33:31.016Z,97012.58
2018-07-23T15:36:00.204Z,97010.97
2018-07-23T15:38:29.359Z,97007.42
2018-07-23T15:40:58.545Z,97011.94
2018-07-23T15:43:27.994Z,97012.56
2018-07-23T15:45:57.880Z,97004.42
2018-07-23T15:48:27.195Z,96998.39
2018-07-23T15:50:56.378Z,97002.41
2018-07-23T15:53:26.157Z,97004.59
2018-07-23T15:55:57.476Z,97002.42
2018-07-23T15:58:26.631Z,97007.92
2018-07-23T16:00:55.826Z,97009.33
2018-07-23T16:03:25.015Z,96999.20
2018-07-23T16:05:54.184Z,97001.16
2018-07-23T16:08:23.343Z,97000.28
2018-07-23T16:10:52.529Z,96998.24
2018-07-23T16:13:21.678Z,96997.15
2018-07-23T16:15:50.876Z,96995.68
2018-07-23T16:18:20.031Z,96993.66
2018-07-23T16:20:49.463Z,96985.94
2018-07-23T16:23:18.614Z,96985.17
2018-07-23T16:25:47.795Z,96988.45
2018-07-23T16:28:16.970Z,96995.40
2018-07-23T16:30:48.418Z,96989.19
2018-07-23T16:33:17.595Z,96988.08
2018-07-23T16:35:46.794Z,96983.01
2018-07-23T16:38:15.996Z,96980.16
2018-07-23T16:40:45.172Z,96981.55
2018-07-23T16:43:14.379Z,96986.12
2018-07-23T16:45:43.558Z,96977.48
2018-07-23T16:48:12.714Z,96981.05
2018-07-23T16:50:42.110Z,96971.86
2018-07-23T16:53:11.287Z,96975.05
2018-07-23T16:55:40.608Z,96981.96
2018-07-23T16:58:10.938Z,96980.96
2018-07-23T17:00:40.124Z,96974.09
2018-07-23T17:03:09.258Z,96977.44
2018-07-23T17:05:38.492Z,96983.00
2018-07-23T17:08:07.650Z,96982.41
2018-07-23T17:10:36.828Z,96981.67
2018-07-23T17:13:06.054Z,96984.93
2018-07-23T17:15:35.674Z,96981.53
2018-07-23T17:18:04.927Z,96984.27
2018-07-23T17:20:34.679Z,96987.80
2018-07-23T17:23:04.490Z,96985.46
2018-07-23T17:25:33.642Z,96992.64
2018-07-23T17:28:02.815Z,96993.05
2018-07-23T17:30:32.002Z,96990.95
2018-07-23T17:33:01.171Z,96982.44
2018-07-23T17:35:30.352Z,96985.06
2018-07-23T17:37:59.491Z,96985.60
2018-07-23T17:40:28.690Z,96987.52
2018-07-23T17:42:57.846Z,96982.02
2018-07-23T17:45:27.027Z,96988.81
2018-07-23T17:47:56.190Z,96988.46
2018-07-23T17:50:25.702Z,96984.62
2018-07-23T17:52:55.094Z,96987.05
2018-07-23T17:55:24.274Z,96990.37
2018-07-23T17:57:54.959Z,96991.80
2018-07-23T18:00:24.238Z,96991.78
2018-07-23T18:02:53.410Z,96988.95
2018-07-23T18:05:22.595Z,96988.86
2018-07-23T18:07:51.747Z,96986.77
2018-07-23T18:10:20.918Z,96991.35
2018-07-23T18:12:50.090Z,96986.84
2018-07-23T18:15:19.272Z,96988.21
2018-07-23T18:17:48.472Z,96988.77
2018-07-23T18:20:17.616Z,96990.55
2018-07-23T18:22:46.766Z,96994.10
2018-07-23T18:25:16.229Z,96999.83
2018-07-23T18:27:45.650Z,96998.44
2018-07-23T18:30:14.874Z,97002.16
2018-07-23T18:32:44.167Z,97000.34
2018-07-23T18:35:13.339Z,96997.50
2018-07-23T18:37:42.575Z,97000.02
2018-07-23T18:40:11.705Z,96999.88
2018-07-23T18:42:41.206Z,97001.64
2018-07-23T18:45:11.017Z,97010.03
2018-07-23T18:47:40.207Z,97006.55
2018-07-23T18:50:09.363Z,97008.72
2018-07-23T18:52:38.582Z,97009.50
2018-07-23T18:55:07.734Z,97006.34
2018-07-23T18:57:37.134Z,97011.04
2018-07-23T19:00:06.550Z,97008.98
2018-07-23T19:02:35.723Z,97003.28
2018-07-23T19:05:05.622Z,97009.39
2018-07-23T19:07:34.803Z,97007.56
2018-07-23T19:10:04.262Z,97008.70
2018-07-23T19:12:33.449Z,97012.36
2018-07-23T19:15:02.601Z,97010.39
2018-07-23T19:17:31.790Z,97019.28
2018-07-23T19:20:01.065Z,97022.80
2018-07-23T19:22:30.267Z,97020.30
2018-07-23T19:24:59.434Z,97026.18
2018-07-23T19:27:28.634Z,97027.28
2018-07-23T19:29:57.778Z,97025.31
2018-07-23T19:32:28.802Z,97026.81
2018-07-23T19:34:57.946Z,97034.75
2018-07-23T19:37:27.119Z,97030.00
2018-07-23T19:39:56.287Z,97037.54
2018-07-23T19:44:53.743Z,97034.75
2018-07-23T19:47:22.914Z,97035.75
2018-07-23T19:49:52.066Z,97035.98
2018-07-23T19:52:21.259Z,97048.24
2018-07-23T19:54:50.771Z,97047.14
2018-07-23T19:57:20.058Z,97048.50
2018-07-23T19:59:50.039Z,97049.14
2018-07-23T20:02:19.245Z,97051.58
2018-07-23T20:04:48.422Z,97052.06
2018-07-23T20:07:17.598Z,97047.85
2018-07-23T20:09:46.767Z,97048.89
2018-07-23T20:12:15.943Z,97044.58
2018-07-23T20:14:45.538Z,97041.27
2018-07-23T20:17:15.866Z,97046.33
2018-07-23T20:19:45.051Z,97047.59
2018-07-23T20:22:14.290Z,97048.77
2018-07-23T20:24:44.687Z,97052.05
2018-07-23T20:27:13.891Z,97052.00
2018-07-23T20:29:44.378Z,97054.92
2018-07-23T20:32:13.674Z,97046.92
2018-07-23T20:34:42.958Z,97044.90
2018-07-23T20:37:12.112Z,97049.45
2018-07-23T20:39:41.595Z,97042.75
2018-07-23T20:42:10.899Z,97045.73
2018-07-23T20:44:40.155Z,97044.59
2018-07-23T20:47:09.291Z,97041.66
2018-07-23T20:49:39.183Z,97044.11
2018-07-23T20:52:08.436Z,97044.97
2018-07-23T20:54:37.667Z,97049.81
2018-07-23T20:57:06.859Z,97047.26
2018-07-23T20:59:36.047Z,97046.36
2018-07-23T21:02:05.347Z,97046.09
2018-07-23T21:04:34.726Z,97049.44
2018-07-23T21:07:03.931Z,97047.27
2018-07-23T21:09:33.123Z,97051.00
2018-07-23T21:12:02.323Z,97048.91
2018-07-23T21:14:31.516Z,97050.64
2018-07-23T21:17:01.623Z,97052.67
2018-07-23T21:19:30.826Z,97049.14
2018-07-23T21:22:00.825Z,97048.41
2018-07-23T21:24:30.282Z,97043.37
2018-07-23T21:26:59.498Z,97053.27
2018-07-23T21:29:28.668Z,97052.21
2018-07-23T21:31:57.859Z,97045.34
2018-07-23T21:34:27.238Z,97050.89
2018-07-23T21:36:56.455Z,97049.53
2018-07-23T21:39:25.623Z,97050.27
2018-07-23T21:41:54.857Z,97050.48
2018-07-23T21:44:24.247Z,97047.94
2018-07-23T21:46:53.474Z,97049.34
2018-07-23T21:49:22.711Z,97047.98
2018-07-23T21:51:51.903Z,97052.83
2018-07-23T21:54:21.094Z,97055.02
2018-07-23T21:56:50.352Z,97048.59
2018-07-23T21:59:19.570Z,97056.04
2018-07-23T22:01:48.810Z,97053.82
2018-07-23T22:04:18.443Z,97055.57
2018-07-23T22:06:48.415Z,97050.53
2018-07-23T22:09:18.127Z,97052.11
2018-07-23T22:11:47.319Z,97051.20
2018-07-23T22:14:16.511Z,97055.98
2018-07-23T22:16:45.932Z,97053.66
2018-07-23T22:19:15.117Z,97040.44
2018-07-23T22:21:44.387Z,97048.43
2018-07-23T22:24:13.938Z,97054.70
2018-07-23T22:26:43.102Z,97050.78
2018-07-23T22:29:12.411Z,97053.08
2018-07-23T22:31:41.575Z,97053.38
2018-07-23T22:34:10.774Z,97053.27
2018-07-23T22:36:39.938Z,97053.53
2018-07-23T22:39:10.710Z,97047.42
2018-07-23T22:41:40.603Z,97042.64
2018-07-23T22:44:09.808Z,97046.66
2018-07-23T22:46:38.987Z,97047.98
2018-07-23T22:49:08.326Z,97052.50
2018-07-23T22:51:37.499Z,97050.33
2018-07-23T22:54:06.718Z,97043.70
2018-07-23T22:56:35.963Z,97043.48
2018-07-23T22:59:05.448Z,97041.66
2018-07-23T23:01:35.067Z,97050.72
2018-07-23T23:04:04.279Z,97042.02
2018-07-23T23:06:33.450Z,97043.08
2018-07-23T23:09:02.656Z,97038.38
2018-07-23T23:11:31.954Z,97034.13
2018-07-23T23:14:01.139Z,97039.02
2018-07-23T23:16:30.718Z,97043.17
2018-07-23T23:18:59.981Z,97042.05
2018-07-23T23:21:29.195Z,97043.46
2018-07-23T23:23:58.374Z,97037.77
2018-07-23T23:26:27.978Z,97038.52
2018-07-23T23:28:57.291Z,97044.36
2018-07-23T23:31:26.462Z,97038.79
2018-07-23T23:33:55.654Z,97044.21
2018-07-23T23:36:25.239Z,97038.03
2018-07-23T23:38:54.518Z,97036.59
2018-07-23T23:41:24.044Z,97036.05
2018-07-23T23:43:53.210Z,97035.50
2018-07-23T23:46:22.883Z,97028.20
2018-07-23T23:48:52.093Z,97026.50
2018-07-23T23:51:21.246Z,97030.70
2018-07-23T23:53:50.418Z,97027.27
2018-07-23T23:56:19.573Z,97026.50
2018-07-23T23:58:48.763Z,97026.32
